createdAt,value
2017-12-05T00:00:52.183Z,87
2017-12-05T00:01:55.619Z,87
2017-12-05T00:02:59.716Z,87.2
2017-12-05T00:04:01.749Z,87.3
2017-12-05T00:05:03.076Z,87.5
2017-12-05T00:06:04.565Z,87.1
2017-12-05T00:07:05.968Z,87.2
2017-12-05T00:08:07.390Z,87.1
2017-12-05T00:09:08.851Z,87.1
2017-12-05T00:10:10.206Z,87
2017-12-05T00:11:11.580Z,87.1
2017-12-05T00:12:12.949Z,87.1
2017-12-05T00:13:15.816Z,87.4
2017-12-05T00:14:17.146Z,86.9
2017-12-05T00:15:19.145Z,86.9
2017-12-05T00:16:20.495Z,87
2017-12-05T00:17:22.485Z,86.9
2017-12-05T00:18:23.638Z,87.7
2017-12-05T00:19:25.589Z,86.8
2017-12-05T00:20:26.969Z,87.1
2017-12-05T00:21:28.420Z,86.8
2017-12-05T00:22:30.468Z,86.8
2017-12-05T00:23:32.910Z,86.9
2017-12-05T00:24:33.964Z,86.8
2017-12-05T00:25:35.352Z,86.8
2017-12-05T00:26:36.685Z,86.8
2017-12-05T00:27:38.285Z,86.9
2017-12-05T00:28:40.403Z,86.9
2017-12-05T00:29:41.742Z,86.8
2017-12-05T00:30:43.143Z,86.8
2017-12-05T00:31:44.530Z,86.9
2017-12-05T00:32:46.858Z,86.8
2017-12-05T00:33:50.165Z,86.7
2017-12-05T00:34:51.526Z,86.6
2017-12-05T00:35:52.909Z,86.6
2017-12-05T00:57:23.993Z,88.3
2017-12-05T00:58:25.960Z,88.3
2017-12-05T00:59:27.821Z,88.2
2017-12-05T01:00:29.245Z,88.1
2017-12-05T01:01:30.970Z,88.2
2017-12-05T01:02:32.362Z,87.9
2017-12-05T01:03:33.698Z,87.8
2017-12-05T01:04:35.037Z,87.7
2017-12-05T01:05:40.360Z,87.6
2017-12-05T01:06:42.772Z,87.6
2017-12-05T01:07:44.755Z,87.7
2017-12-05T01:08:47.308Z,87.5
2017-12-05T01:09:51.444Z,87.5
2017-12-05T01:10:52.755Z,87.4
2017-12-05T01:11:54.702Z,87.2
2017-12-05T01:12:57.422Z,87.2
2017-12-05T01:13:58.876Z,87.1
2017-12-05T01:15:00.208Z,87.1
2017-12-05T01:16:03.425Z,87
2017-12-05T01:17:07.243Z,86.9
2017-12-05T01:18:08.420Z,86.9
2017-12-05T01:19:09.774Z,86.8
2017-12-05T01:20:14.065Z,86.7
2017-12-05T01:21:16.194Z,86.7
2017-12-05T01:22:18.041Z,86.6
2017-12-05T01:23:21.981Z,86.5
2017-12-05T01:24:25.142Z,86.5
2017-12-05T01:25:26.463Z,86.2
2017-12-05T01:26:29.724Z,86.2
2017-12-05T01:27:31.026Z,86.1
2017-12-05T01:28:32.308Z,86.1
2017-12-05T01:29:34.075Z,85.9
2017-12-05T01:30:35.440Z,85.7
2017-12-05T01:31:38.606Z,85.6
2017-12-05T01:32:40.168Z,85.6
2017-12-05T01:33:43.046Z,85.5
2017-12-05T01:34:45.880Z,85.5
2017-12-05T01:35:49.240Z,85.4
2017-12-05T01:37:02.852Z,85.4
2017-12-05T01:38:05.492Z,85.4
2017-12-05T01:39:06.840Z,85.4
2017-12-05T01:40:08.158Z,85.3
2017-12-05T01:41:10.463Z,85.1
2017-12-05T01:42:13.961Z,84.9
2017-12-05T01:43:18.926Z,84.8
2017-12-05T01:44:21.610Z,84.7
2017-12-05T01:45:22.983Z,84.6
2017-12-05T01:46:25.601Z,84.5
2017-12-05T01:47:30.442Z,84.6
2017-12-05T01:48:32.539Z,84.6
2017-12-05T01:49:35.924Z,84.7
2017-12-05T01:50:37.289Z,84.3
2017-12-05T01:51:40.057Z,84.1
2017-12-05T01:52:41.441Z,84.1
2017-12-05T01:53:43.578Z,84.1
2017-12-05T01:54:46.340Z,84.3
2017-12-05T01:55:50.179Z,83.9
2017-12-05T01:56:51.483Z,83.6
2017-12-05T01:57:55.239Z,83.6
2017-12-05T01:58:58.772Z,83.9
2017-12-05T02:00:00.650Z,83.7
2017-12-05T02:01:02.610Z,83.6
2017-12-05T02:02:03.746Z,83.5
2017-12-05T02:03:05.325Z,83.5
2017-12-05T02:04:07.562Z,83.3
2017-12-05T02:05:09.994Z,83
2017-12-05T02:06:12.096Z,82.8
2017-12-05T02:07:14.104Z,82.9
2017-12-05T02:08:17.877Z,82.6
2017-12-05T02:09:19.206Z,82.6
2017-12-05T02:10:21.118Z,82.8
2017-12-05T02:11:22.846Z,82.9
2017-12-05T02:12:24.194Z,82.8
2017-12-05T02:13:25.650Z,82.5
2017-12-05T02:14:27.056Z,82.9
2017-12-05T02:15:28.584Z,82.4
2017-12-05T02:16:29.887Z,81.9
2017-12-05T02:17:31.213Z,82.2
2017-12-05T02:18:34.516Z,82.2
2017-12-05T02:19:37.569Z,82.1
2017-12-05T02:20:38.877Z,82
2017-12-05T02:21:41.655Z,81.9
2017-12-05T02:22:42.990Z,82.1
2017-12-05T02:23:44.951Z,82.2
2017-12-05T02:24:46.997Z,82.2
2017-12-05T02:25:50.588Z,82.1
2017-12-05T02:26:52.639Z,82
2017-12-05T02:27:54.023Z,81.2
2017-12-05T02:28:56.513Z,81.9
2017-12-05T02:29:57.919Z,81.9
2017-12-05T02:30:59.698Z,82
2017-12-05T02:32:00.949Z,82.2
2017-12-05T02:33:02.299Z,82.3
2017-12-05T02:34:03.670Z,82.3
2017-12-05T02:35:05.213Z,82.1
2017-12-05T02:36:06.539Z,82.3
2017-12-05T02:37:08.669Z,82.2
2017-12-05T02:38:10.612Z,82.2
2017-12-05T02:39:13.267Z,82.2
2017-12-05T02:40:15.508Z,82.2
2017-12-05T02:41:16.879Z,82.2
2017-12-05T02:42:18.190Z,82.2
2017-12-05T02:43:19.609Z,82.5
2017-12-05T02:44:20.959Z,82.5
2017-12-05T02:45:23.354Z,82.7
2017-12-05T02:46:24.601Z,82.6
2017-12-05T02:47:27.072Z,82.7
2017-12-05T02:48:28.425Z,82.5
2017-12-05T02:49:32.642Z,82.4
2017-12-05T02:50:34.320Z,82.4
2017-12-05T02:51:35.686Z,82.1
2017-12-05T02:52:39.352Z,82.2
2017-12-05T02:53:41.202Z,82.2
2017-12-05T02:54:42.547Z,82.6
2017-12-05T02:55:43.906Z,82.2
2017-12-05T02:56:45.149Z,82.3
2017-12-05T02:57:47.275Z,82.1
2017-12-05T02:58:48.512Z,81.9
2017-12-05T02:59:53.035Z,81.8
2017-12-05T03:00:54.402Z,81.8
2017-12-05T03:01:56.683Z,82
2017-12-05T03:02:58.595Z,81.7
2017-12-05T03:03:59.853Z,81.5
2017-12-05T03:05:01.149Z,81.5
2017-12-05T03:06:02.593Z,81.4
2017-12-05T03:07:04.605Z,81.8
2017-12-05T03:08:05.843Z,81.3
2017-12-05T03:09:07.203Z,81.6
2017-12-05T03:10:11.116Z,81.6
2017-12-05T03:11:12.777Z,81.7
2017-12-05T03:12:15.333Z,81
2017-12-05T03:13:16.687Z,81.1
2017-12-05T03:14:19.341Z,81
2017-12-05T03:15:21.324Z,80.6
2017-12-05T03:16:22.712Z,80.5
2017-12-05T03:17:25.536Z,80.5
2017-12-05T03:18:27.441Z,80.7
2017-12-05T03:19:28.750Z,80.8
2017-12-05T03:20:32.169Z,80.9
2017-12-05T03:21:33.498Z,80.4
2017-12-05T03:22:36.439Z,79.9
2017-12-05T03:23:38.726Z,80.2
2017-12-05T03:24:41.472Z,79.8
2017-12-05T03:25:45.602Z,79.9
2017-12-05T03:26:47.438Z,79.8
2017-12-05T03:27:48.828Z,80
2017-12-05T03:28:50.167Z,79.9
2017-12-05T03:29:52.036Z,79.9
2017-12-05T03:30:55.653Z,80
2017-12-05T03:31:57.588Z,79.7
2017-12-05T03:32:58.881Z,79.6
2017-12-05T03:34:02.231Z,79.8
2017-12-05T03:35:04.306Z,79.8
2017-12-05T03:36:07.031Z,79.7
2017-12-05T03:37:08.380Z,79.9
2017-12-05T03:38:10.345Z,80.2
2017-12-05T03:39:15.345Z,80
2017-12-05T03:40:16.649Z,80.1
2017-12-05T03:41:21.444Z,79.7
2017-12-05T03:42:22.793Z,79.8
2017-12-05T03:43:24.658Z,79.5
2017-12-05T03:44:28.151Z,79.6
2017-12-05T03:45:30.868Z,79.9
2017-12-05T03:46:33.373Z,80
2017-12-05T03:47:36.682Z,79.9
2017-12-05T03:48:38.848Z,79.9
2017-12-05T03:49:40.288Z,79.9
2017-12-05T03:50:42.276Z,79.9
2017-12-05T03:51:46.155Z,79.9
2017-12-05T03:52:47.696Z,80
2017-12-05T03:53:48.965Z,79.9
2017-12-05T03:54:50.265Z,79.7
2017-12-05T03:55:52.762Z,79.8
2017-12-05T03:56:55.820Z,80.5
2017-12-05T03:57:57.404Z,79.9
2017-12-05T03:59:00.085Z,80.1
2017-12-05T04:00:01.295Z,80
2017-12-05T04:01:03.275Z,80.1
2017-12-05T04:02:07.141Z,80.2
2017-12-05T04:03:08.463Z,80.1
2017-12-05T04:04:10.622Z,80.3
2017-12-05T04:05:11.980Z,80.3
2017-12-05T04:06:13.167Z,80.4
2017-12-05T04:07:15.790Z,80.2
2017-12-05T04:08:18.741Z,80.4
2017-12-05T04:09:22.208Z,80.3
2017-12-05T04:10:24.625Z,80.4
2017-12-05T04:11:27.310Z,80.2
2017-12-05T04:12:29.954Z,80
2017-12-05T04:13:32.761Z,80.1
2017-12-05T04:14:34.100Z,79.9
2017-12-05T04:15:35.445Z,79.9
2017-12-05T04:16:37.369Z,79.8
2017-12-05T04:17:38.774Z,80
2017-12-05T04:18:40.507Z,80.1
2017-12-05T04:19:41.813Z,80.2
2017-12-05T04:20:53.144Z,80
2017-12-05T04:21:55.781Z,80.2
2017-12-05T04:23:01.341Z,80.2
2017-12-05T04:24:02.675Z,80.2
2017-12-05T04:25:03.966Z,79.9
2017-12-05T04:26:05.298Z,79.8
2017-12-05T04:27:06.652Z,79.8
2017-12-05T04:28:07.972Z,79.8
2017-12-05T04:29:10.225Z,80.7
2017-12-05T04:30:11.615Z,80.1
2017-12-05T04:31:12.970Z,80.3
2017-12-05T04:32:14.287Z,80.3
2017-12-05T04:33:17.062Z,80.4
2017-12-05T04:34:18.775Z,80.4
2017-12-05T04:35:20.745Z,80.4
2017-12-05T04:36:22.098Z,80.4
2017-12-05T04:37:23.368Z,80.4
2017-12-05T04:38:24.783Z,80.4
2017-12-05T04:39:26.476Z,80.5
2017-12-05T04:40:27.868Z,80.6
2017-12-05T04:41:29.197Z,80.6
2017-12-05T04:42:30.505Z,80.7
2017-12-05T04:43:33.244Z,80.7
2017-12-05T04:44:34.644Z,80.8
2017-12-05T04:45:35.930Z,80.9
2017-12-05T04:46:37.325Z,81
2017-12-05T04:47:38.632Z,81
2017-12-05T04:48:40.007Z,81
2017-12-05T04:49:42.083Z,81
2017-12-05T04:50:43.361Z,81.7
2017-12-05T04:51:44.687Z,81.2
2017-12-05T04:52:46.073Z,81.3
2017-12-05T04:53:48.812Z,81.1
2017-12-05T04:54:50.420Z,81.2
2017-12-05T04:55:51.781Z,82
2017-12-05T04:56:53.075Z,80.8
2017-12-05T04:57:54.474Z,81.3
2017-12-05T04:58:56.499Z,81.2
2017-12-05T04:59:57.776Z,81.4
2017-12-05T05:00:58.971Z,81.5
2017-12-05T05:02:00.211Z,81.5
2017-12-05T05:03:01.538Z,81.2
2017-12-05T05:04:04.203Z,81.2
2017-12-05T05:05:06.544Z,81
2017-12-05T05:06:07.882Z,81.3
2017-12-05T05:07:09.875Z,81.3
2017-12-05T05:08:11.177Z,81.3
2017-12-05T05:09:13.095Z,81.2
2017-12-05T05:10:14.770Z,82.4
2017-12-05T05:11:16.151Z,81.1
2017-12-05T05:12:17.500Z,81.2
2017-12-05T05:13:19.502Z,81.3
2017-12-05T05:14:22.224Z,81.5
2017-12-05T05:15:23.788Z,81.4
2017-12-05T05:16:25.200Z,81.4
2017-12-05T05:17:26.531Z,81.4
2017-12-05T05:18:27.888Z,81.4
2017-12-05T05:19:29.223Z,81.5
2017-12-05T05:20:30.525Z,81.5
2017-12-05T05:21:31.851Z,81.5
2017-12-05T05:22:33.333Z,81.6
2017-12-05T05:23:35.343Z,81.7
2017-12-05T05:24:37.997Z,81.6
2017-12-05T05:25:39.605Z,81.6
2017-12-05T05:26:40.898Z,81.6
2017-12-05T05:27:42.168Z,81.6
2017-12-05T05:28:43.416Z,81.7
2017-12-05T05:29:44.732Z,81.8
2017-12-05T05:30:46.301Z,81.4
2017-12-05T05:31:47.602Z,82.1
2017-12-05T05:32:48.928Z,82.2
2017-12-05T05:33:50.291Z,82.1
2017-12-05T05:34:53.047Z,82.1
2017-12-05T05:35:54.754Z,82.3
2017-12-05T05:36:56.040Z,82.3
2017-12-05T05:37:59.427Z,82.3
2017-12-05T05:39:00.698Z,82.3
2017-12-05T05:40:02.143Z,82.2
2017-12-05T05:41:03.801Z,82.1
2017-12-05T05:42:05.153Z,82.2
2017-12-05T05:43:06.450Z,82.4
2017-12-05T05:44:07.748Z,81.8
2017-12-05T05:45:10.439Z,82.4
2017-12-05T05:46:13.986Z,82.4
2017-12-05T05:47:15.299Z,82.3
2017-12-05T05:48:16.700Z,82.4
2017-12-05T05:49:17.955Z,83.3
2017-12-05T05:50:19.231Z,82.5
2017-12-05T05:51:20.515Z,82.4
2017-12-05T05:52:21.830Z,82.6
2017-12-05T05:53:23.150Z,82.5
2017-12-05T05:54:24.458Z,82.5
2017-12-05T05:55:27.858Z,82.6
2017-12-05T05:56:29.163Z,82.5
2017-12-05T05:57:30.499Z,82.5
2017-12-05T05:58:31.750Z,82.6
2017-12-05T05:59:33.119Z,82.4
2017-12-05T06:00:34.461Z,82.4
2017-12-05T06:01:35.828Z,82.4
2017-12-05T06:02:37.072Z,82.4
2017-12-05T06:03:38.496Z,82.6
2017-12-05T06:04:39.820Z,82.2
2017-12-05T06:05:42.486Z,82.7
2017-12-05T06:06:43.920Z,82.3
2017-12-05T06:07:45.294Z,82.3
2017-12-05T06:08:46.684Z,82.6
2017-12-05T06:09:48.041Z,82.4
2017-12-05T06:10:49.284Z,82.5
2017-12-05T06:11:50.581Z,82.3
2017-12-05T06:12:52.151Z,82.3
2017-12-05T06:13:53.396Z,82.2
2017-12-05T06:14:54.782Z,82.3
2017-12-05T06:15:57.666Z,82.2
2017-12-05T06:16:59.026Z,82.4
2017-12-05T06:18:00.338Z,82.9
2017-12-05T06:19:01.749Z,82.4
2017-12-05T06:20:03.029Z,82.3
2017-12-05T06:21:04.317Z,82.4
2017-12-05T06:22:05.614Z,82.3
2017-12-05T06:23:06.910Z,82.6
2017-12-05T06:24:08.176Z,82.4
2017-12-05T06:25:09.544Z,82.5
2017-12-05T06:26:12.197Z,82.5
2017-12-05T06:27:13.507Z,82.6
2017-12-05T06:28:14.869Z,82.7
2017-12-05T06:29:16.895Z,82.8
2017-12-05T06:30:18.244Z,82.6
2017-12-05T06:31:19.687Z,82.5
2017-12-05T06:32:21.042Z,82.4
2017-12-05T06:33:22.338Z,82.3
2017-12-05T06:34:23.650Z,82.6
2017-12-05T06:35:25.008Z,82.4
2017-12-05T06:36:27.734Z,82.5
2017-12-05T06:37:29.318Z,82.4
2017-12-05T06:38:30.612Z,82.5
2017-12-05T06:39:31.865Z,82.5
2017-12-05T06:40:33.144Z,82.5
2017-12-05T06:41:34.503Z,82.4
2017-12-05T06:42:36.092Z,82.6
2017-12-05T06:43:37.411Z,82.5
2017-12-05T06:44:38.692Z,82.7
2017-12-05T06:45:40.067Z,82.7
2017-12-05T06:46:42.829Z,82.7
2017-12-05T06:47:46.378Z,82.8
2017-12-05T06:48:47.738Z,82.8
2017-12-05T06:49:49.019Z,82.9
2017-12-05T06:50:50.416Z,83
2017-12-05T06:51:51.715Z,82.8
2017-12-05T06:52:53.119Z,82.8
2017-12-05T06:53:54.427Z,82.8
2017-12-05T06:54:55.904Z,82.9
2017-12-05T06:55:57.269Z,82.9
2017-12-05T06:57:00.040Z,82.8
2017-12-05T06:58:01.434Z,82.8
2017-12-05T06:59:02.793Z,82.9
2017-12-05T07:00:04.091Z,83
2017-12-05T07:01:05.328Z,83.1
2017-12-05T07:02:06.588Z,83.8
2017-12-05T07:03:07.637Z,83
2017-12-05T07:04:08.938Z,83
2017-12-05T07:05:10.401Z,83.1
2017-12-05T07:06:11.802Z,83.1
2017-12-05T07:07:14.370Z,83.6
2017-12-05T07:08:18.174Z,83.1
2017-12-05T07:09:20.423Z,83.2
2017-12-05T07:10:21.781Z,83.2
2017-12-05T07:11:23.238Z,83.3
2017-12-05T07:12:24.616Z,83.3
2017-12-05T07:13:26.238Z,83.4
2017-12-05T07:14:27.633Z,83.5
2017-12-05T07:15:29.025Z,83.5
2017-12-05T07:16:31.059Z,83.3
2017-12-05T07:17:33.700Z,83.4
2017-12-05T07:18:34.898Z,83.4
2017-12-05T07:19:36.301Z,83.9
2017-12-05T07:20:37.646Z,83.4
2017-12-05T07:21:38.937Z,83.6
2017-12-05T07:22:40.198Z,83.3
2017-12-05T07:23:41.554Z,83.2
2017-12-05T07:24:42.919Z,83.3
2017-12-05T07:25:44.231Z,83.1
2017-12-05T07:26:45.468Z,83.3
2017-12-05T07:27:48.237Z,83.1
2017-12-05T07:28:49.736Z,83.1
2017-12-05T07:29:51.066Z,83.1
2017-12-05T07:30:52.410Z,82.7
2017-12-05T07:31:53.811Z,82.8
2017-12-05T07:32:55.074Z,82.7
2017-12-05T07:33:56.520Z,82.8
2017-12-05T07:34:57.809Z,82.9
2017-12-05T07:35:59.198Z,82.7
2017-12-05T07:37:00.636Z,82.7
2017-12-05T07:38:03.494Z,82.7
2017-12-05T07:39:04.803Z,82.6
2017-12-05T07:40:06.184Z,83.5
2017-12-05T07:41:07.575Z,82.6
2017-12-05T07:42:08.866Z,82.6
2017-12-05T07:43:10.256Z,82.4
2017-12-05T07:44:11.619Z,82.5
2017-12-05T07:45:12.928Z,82.3
2017-12-05T07:46:14.300Z,82.2
2017-12-05T07:47:15.722Z,82.2
2017-12-05T07:48:18.436Z,82.2
2017-12-05T07:49:19.829Z,82.3
2017-12-05T07:50:21.281Z,82.4
2017-12-05T07:51:22.635Z,82.4
2017-12-05T07:52:24.051Z,82.5
2017-12-05T07:53:25.323Z,82.4
2017-12-05T07:54:26.963Z,82.3
2017-12-05T07:55:28.285Z,82.1
2017-12-05T07:56:29.661Z,82.2
2017-12-05T07:57:30.976Z,82.5
2017-12-05T07:58:34.290Z,82.4
2017-12-05T07:59:35.926Z,82.3
2017-12-05T08:00:37.310Z,82.6
2017-12-05T08:01:38.593Z,82.4
2017-12-05T08:02:39.935Z,82.2
2017-12-05T08:03:42.262Z,82.1
2017-12-05T08:04:44.524Z,82.4
2017-12-05T08:05:45.866Z,81.8
2017-12-05T08:06:47.179Z,82
2017-12-05T08:07:48.434Z,81.9
2017-12-05T08:08:51.143Z,81.9
2017-12-05T08:09:52.788Z,81.8
2017-12-05T08:10:56.246Z,81.7
2017-12-05T08:11:57.549Z,81.9
2017-12-05T08:12:59.786Z,81.8
2017-12-05T08:14:01.188Z,81.8
2017-12-05T08:15:02.642Z,81.7
2017-12-05T08:16:04.041Z,81.8
2017-12-05T08:17:05.418Z,81.8
2017-12-05T08:18:07.943Z,81.8
2017-12-05T08:19:11.345Z,81.9
2017-12-05T08:20:13.094Z,81.8
2017-12-05T08:21:15.033Z,81.6
2017-12-05T08:22:16.373Z,81.7
2017-12-05T08:23:18.550Z,81.7
2017-12-05T08:24:20.651Z,81.9
2017-12-05T08:25:22.015Z,81.8
2017-12-05T08:26:23.398Z,81.5
2017-12-05T08:27:24.732Z,82.2
2017-12-05T08:28:26.159Z,82
2017-12-05T08:29:29.460Z,82
2017-12-05T08:30:31.676Z,82.1
2017-12-05T08:31:33.017Z,82.1
2017-12-05T08:32:34.336Z,82.2
2017-12-05T08:33:35.705Z,82.3
2017-12-05T08:34:37.135Z,82.1
2017-12-05T08:35:38.438Z,82.2
2017-12-05T08:36:40.829Z,82.3
2017-12-05T08:37:42.135Z,82.2
2017-12-05T08:38:44.033Z,81.6
2017-12-05T08:39:46.843Z,81.9
2017-12-05T08:40:48.523Z,82.4
2017-12-05T08:41:49.837Z,82.3
2017-12-05T08:42:51.290Z,82.1
2017-12-05T08:43:53.110Z,82.6
2017-12-05T08:44:55.733Z,82.4
2017-12-05T08:45:57.836Z,82.8
2017-12-05T08:46:59.965Z,82.4
2017-12-05T08:48:01.283Z,83
2017-12-05T08:49:04.848Z,83.7
2017-12-05T08:50:08.826Z,83.2
2017-12-05T08:51:11.875Z,82.9
2017-12-05T08:52:14.804Z,83.2
2017-12-05T08:53:16.151Z,82.7
2017-12-05T08:54:17.603Z,82.2
2017-12-05T08:55:20.268Z,82.9
2017-12-05T08:56:22.356Z,82.1
2017-12-05T08:57:23.767Z,82.4
2017-12-05T08:58:25.877Z,82.7
2017-12-05T08:59:27.277Z,82.9
2017-12-05T09:00:30.668Z,82.4
2017-12-05T09:01:33.603Z,82.5
2017-12-05T09:02:34.885Z,82.6
2017-12-05T09:03:36.193Z,82.4
2017-12-05T09:04:37.541Z,81.8
2017-12-05T09:05:39.360Z,82.3
2017-12-05T09:06:42.179Z,82.5
2017-12-05T09:07:43.524Z,82.5
2017-12-05T09:08:45.552Z,82.4
2017-12-05T09:09:47.013Z,82.8
2017-12-05T09:10:49.827Z,83.2
2017-12-05T09:11:51.290Z,83.2
2017-12-05T09:12:52.653Z,83
2017-12-05T09:13:54.141Z,82.9
2017-12-05T09:14:55.556Z,82.8
2017-12-05T09:15:56.898Z,82.9
2017-12-05T09:16:58.165Z,82.4
2017-12-05T09:17:59.464Z,82.2
2017-12-05T09:19:01.819Z,82.1
2017-12-05T09:20:03.104Z,82.1
2017-12-05T09:21:05.909Z,82.7
2017-12-05T09:22:07.558Z,82.5
2017-12-05T09:23:08.833Z,81.7
2017-12-05T09:24:10.206Z,81.5
2017-12-05T09:25:11.573Z,81.8
2017-12-05T09:26:12.924Z,81.9
2017-12-05T09:27:15.197Z,82.1
2017-12-05T09:28:16.590Z,81.7
2017-12-05T09:29:17.953Z,81.8
2017-12-05T09:30:19.373Z,82
2017-12-05T09:31:22.214Z,81.8
2017-12-05T09:32:23.712Z,81.7
2017-12-05T09:33:25.002Z,81.6
2017-12-05T09:34:26.329Z,81.4
2017-12-05T09:35:27.817Z,81.3
2017-12-05T09:36:29.043Z,81.2
2017-12-05T09:37:30.362Z,82
2017-12-05T09:38:31.653Z,81.4
2017-12-05T09:39:33.087Z,81.2
2017-12-05T09:40:34.500Z,81.3
2017-12-05T09:41:37.692Z,81.4
2017-12-05T09:42:39.226Z,81.4
2017-12-05T09:43:41.405Z,81.2
2017-12-05T09:44:42.752Z,81.3
2017-12-05T09:45:44.582Z,81.4
2017-12-05T09:46:45.933Z,81.3
2017-12-05T09:47:47.555Z,81.2
2017-12-05T09:48:48.882Z,81
2017-12-05T09:49:50.273Z,80.8
2017-12-05T09:50:51.559Z,80.6
2017-12-05T09:51:55.631Z,80.8
2017-12-05T09:52:57.036Z,80.8
2017-12-05T09:53:58.363Z,80.7
2017-12-05T09:54:59.748Z,80.7
2017-12-05T09:56:01.216Z,80.8
2017-12-05T09:57:02.572Z,81.2
2017-12-05T09:58:04.097Z,80.9
2017-12-05T09:59:07.360Z,80.8
2017-12-05T10:00:08.808Z,80.6
2017-12-05T10:01:10.162Z,80.6
2017-12-05T10:02:12.829Z,81.2
2017-12-05T10:03:14.188Z,80.6
2017-12-05T10:04:15.424Z,80.6
2017-12-05T10:05:16.782Z,80.7
2017-12-05T10:06:18.151Z,80.7
2017-12-05T10:07:19.572Z,80.3
2017-12-05T10:08:20.926Z,80.1
2017-12-05T10:09:22.872Z,80.4
2017-12-05T10:10:24.275Z,80.7
2017-12-05T10:11:25.630Z,80.7
2017-12-05T10:12:28.345Z,80.6
2017-12-05T10:13:29.474Z,80.5
2017-12-05T10:14:30.810Z,80.2
2017-12-05T10:15:32.074Z,80.2
2017-12-05T10:16:33.370Z,79.8
2017-12-05T10:17:34.704Z,79.9
2017-12-05T10:18:36.045Z,80
2017-12-05T10:19:37.446Z,80.1
2017-12-05T10:20:38.788Z,79.9
2017-12-05T10:21:40.139Z,81
2017-12-05T10:22:42.786Z,80
2017-12-05T10:23:44.286Z,80
2017-12-05T10:24:45.690Z,80.1
2017-12-05T10:25:47.070Z,80.3
2017-12-05T10:26:48.403Z,80.1
2017-12-05T10:27:49.877Z,79.7
2017-12-05T10:28:51.784Z,79.9
2017-12-05T10:29:53.159Z,80
2017-12-05T10:30:54.566Z,79.7
2017-12-05T10:31:55.960Z,79.8
2017-12-05T10:32:59.112Z,79.6
2017-12-05T10:34:00.427Z,79.7
2017-12-05T10:35:01.785Z,79.3
2017-12-05T10:36:03.140Z,79.3
2017-12-05T10:37:04.498Z,79.1
2017-12-05T10:38:05.793Z,78.9
2017-12-05T10:39:07.183Z,79.2
2017-12-05T10:40:08.429Z,80.1
2017-12-05T10:41:09.884Z,79.2
2017-12-05T10:42:11.234Z,78.7
2017-12-05T10:43:14.052Z,79
2017-12-05T10:44:16.186Z,78.9
2017-12-05T10:45:18.648Z,78.9
2017-12-05T10:46:19.996Z,79.2
2017-12-05T10:47:21.470Z,78.9
2017-12-05T10:48:22.985Z,78.9
2017-12-05T10:49:24.390Z,79.1
2017-12-05T10:50:25.799Z,79.1
2017-12-05T10:51:27.128Z,78.8
2017-12-05T10:52:29.038Z,78.9
2017-12-05T10:53:32.375Z,79.3
2017-12-05T10:54:33.816Z,79.5
2017-12-05T10:55:35.164Z,79.5
2017-12-05T10:56:36.529Z,79.6
2017-12-05T10:57:37.912Z,79.5
2017-12-05T10:58:39.147Z,79.4
2017-12-05T10:59:40.633Z,79
2017-12-05T11:00:42.005Z,78.8
2017-12-05T11:01:43.385Z,78.9
2017-12-05T11:02:44.749Z,79.1
2017-12-05T11:03:47.459Z,78.4
2017-12-05T11:04:48.771Z,78.2
2017-12-05T11:05:50.110Z,78.4
2017-12-05T11:06:51.473Z,78.8
2017-12-05T11:08:02.827Z,78.4
2017-12-05T11:09:04.189Z,78.1
2017-12-05T11:10:05.586Z,78.4
2017-12-05T11:11:07.036Z,78.3
2017-12-05T11:12:08.395Z,78.5
2017-12-05T11:13:09.815Z,78.7
2017-12-05T11:14:14.252Z,79.4
2017-12-05T11:15:15.747Z,78.6
2017-12-05T11:16:17.189Z,76.9
2017-12-05T11:17:18.564Z,76.5
2017-12-05T11:18:19.939Z,77
2017-12-05T11:19:21.344Z,78.5
2017-12-05T11:20:22.797Z,79.1
2017-12-05T11:21:24.942Z,79.4
2017-12-05T11:22:26.974Z,79.2
2017-12-05T11:23:28.295Z,79.1
2017-12-05T11:24:31.905Z,78.6
2017-12-05T11:25:34.797Z,78.9
2017-12-05T11:26:36.638Z,78.5
2017-12-05T11:27:37.925Z,78.6
2017-12-05T11:28:39.032Z,78.6
2017-12-05T11:29:40.401Z,78.6
2017-12-05T11:30:42.352Z,78.6
2017-12-05T11:31:43.742Z,78.4
2017-12-05T11:32:47.648Z,77.9
2017-12-05T11:33:48.988Z,78
2017-12-05T11:34:53.228Z,78
2017-12-05T11:35:54.722Z,77.8
2017-12-05T11:36:56.083Z,77.7
2017-12-05T11:37:57.419Z,77.6
2017-12-05T11:38:58.745Z,77.4
2017-12-05T11:40:00.085Z,77.5
2017-12-05T11:41:01.393Z,77.8
2017-12-05T11:42:02.779Z,77.5
2017-12-05T11:43:04.046Z,77.5
2017-12-05T11:44:07.581Z,77.9
2017-12-05T11:45:10.314Z,78.1
2017-12-05T11:46:11.741Z,77.7
2017-12-05T11:47:15.810Z,77.6
2017-12-05T11:48:17.220Z,77.5
2017-12-05T11:49:18.706Z,77.4
2017-12-05T11:50:20.534Z,77.4
2017-12-05T11:51:21.873Z,77.1
2017-12-05T11:52:24.492Z,77.3
2017-12-05T11:53:25.793Z,77.3
2017-12-05T11:54:27.139Z,77.4
2017-12-05T11:55:30.002Z,77.8
2017-12-05T11:56:32.046Z,77.8
2017-12-05T11:57:33.359Z,77.4
2017-12-05T11:58:34.698Z,77.7
2017-12-05T11:59:37.292Z,77.5
2017-12-05T12:00:38.589Z,77.3
2017-12-05T12:01:40.016Z,77.4
2017-12-05T12:02:41.363Z,77.1
2017-12-05T12:03:42.804Z,77.2
2017-12-05T12:04:44.800Z,77.2
2017-12-05T12:05:47.618Z,76.6
2017-12-05T12:06:49.017Z,76.8
2017-12-05T12:07:50.445Z,77.3
2017-12-05T12:08:51.583Z,77.1
2017-12-05T12:09:53.585Z,76.9
2017-12-05T12:10:55.426Z,76.9
2017-12-05T12:11:57.428Z,77.2
2017-12-05T12:12:58.847Z,77.4
2017-12-05T12:14:00.252Z,76.9
2017-12-05T12:15:01.694Z,77.3
2017-12-05T12:16:04.365Z,77.3
2017-12-05T12:17:05.648Z,76.9
2017-12-05T12:18:16.961Z,76.6
2017-12-05T12:19:18.291Z,76.5
2017-12-05T12:20:20.939Z,77.4
2017-12-05T12:21:22.296Z,77.6
2017-12-05T12:22:23.644Z,77.4
2017-12-05T12:23:24.968Z,76.9
2017-12-05T12:24:26.310Z,76.4
2017-12-05T12:25:27.575Z,76.9
2017-12-05T12:26:30.276Z,76.6
2017-12-05T12:27:31.597Z,76.5
2017-12-05T12:28:32.963Z,76.7
2017-12-05T12:29:34.346Z,77
2017-12-05T12:30:35.822Z,77
2017-12-05T12:31:37.252Z,77
2017-12-05T12:32:38.784Z,76.6
2017-12-05T12:33:40.215Z,76.9
2017-12-05T12:34:41.514Z,76.9
2017-12-05T12:35:42.773Z,77
2017-12-05T12:36:45.719Z,77.1
2017-12-05T12:37:47.131Z,77.1
2017-12-05T12:38:48.519Z,76.9
2017-12-05T12:39:49.867Z,76.7
2017-12-05T12:40:51.221Z,76.8
2017-12-05T12:41:52.521Z,76.9
2017-12-05T12:42:53.951Z,77.1
2017-12-05T12:43:55.166Z,77.1
2017-12-05T12:44:56.602Z,77
2017-12-05T12:45:58.022Z,76.6
2017-12-05T12:47:01.673Z,76.4
2017-12-05T12:48:04.061Z,76.8
2017-12-05T12:49:05.309Z,76.9
2017-12-05T12:50:07.298Z,77.1
2017-12-05T12:51:08.692Z,76.7
2017-12-05T12:52:09.984Z,76.7
2017-12-05T12:53:11.634Z,76.5
2017-12-05T12:54:13.009Z,76.5
2017-12-05T12:55:14.352Z,76.9
2017-12-05T12:56:16.175Z,76.8
2017-12-05T12:57:18.997Z,76.9
2017-12-05T12:58:21.500Z,76.6
2017-12-05T12:59:22.814Z,76.7
2017-12-05T13:00:25.021Z,76.3
2017-12-05T13:01:26.727Z,76.2
2017-12-05T13:02:28.028Z,76.4
2017-12-05T13:03:29.364Z,76.3
2017-12-05T13:04:31.597Z,76.5
2017-12-05T13:05:32.977Z,76.7
2017-12-05T13:06:34.279Z,77.1
2017-12-05T13:07:37.092Z,76.8
2017-12-05T13:08:38.530Z,76.7
2017-12-05T13:09:40.464Z,77
2017-12-05T13:10:41.601Z,76.9
2017-12-05T13:11:43.064Z,76.6
2017-12-05T13:12:45.121Z,76.4
2017-12-05T13:13:46.538Z,76
2017-12-05T13:14:47.884Z,76.4
2017-12-05T13:15:49.261Z,76.3
2017-12-05T13:16:51.412Z,76.2
2017-12-05T13:17:55.333Z,76.4
2017-12-05T13:18:57.445Z,76.5
2017-12-05T13:19:59.796Z,77.1
2017-12-05T13:21:01.199Z,76.8
2017-12-05T13:22:02.687Z,76.6
2017-12-05T13:23:04.106Z,77.2
2017-12-05T13:24:05.479Z,76.9
2017-12-05T13:25:06.767Z,76.8
2017-12-05T13:26:08.759Z,76.8
2017-12-05T13:27:10.073Z,76.9
2017-12-05T13:28:12.836Z,76.9
2017-12-05T13:29:14.223Z,77.1
2017-12-05T13:30:15.578Z,77.2
2017-12-05T13:31:17.002Z,77.2
2017-12-05T13:32:18.378Z,77.2
2017-12-05T13:33:19.765Z,77.9
2017-12-05T13:34:21.193Z,76.9
2017-12-05T13:35:22.594Z,77
2017-12-05T13:36:23.953Z,77.2
2017-12-05T13:37:25.277Z,77.2
2017-12-05T13:38:28.072Z,77.4
2017-12-05T13:39:29.529Z,77.4
2017-12-05T13:40:30.894Z,77.2
2017-12-05T13:41:33.027Z,77.2
2017-12-05T13:42:34.365Z,77.2
2017-12-05T13:43:35.841Z,77.4
2017-12-05T13:44:37.249Z,77.6
2017-12-05T13:45:38.359Z,77.3
2017-12-05T13:46:40.374Z,77.2
2017-12-05T13:47:41.698Z,77.1
2017-12-05T13:48:45.521Z,77.1
2017-12-05T13:49:47.181Z,77.3
2017-12-05T13:50:49.155Z,77.6
2017-12-05T13:51:50.580Z,77.7
2017-12-05T13:52:51.907Z,77.4
2017-12-05T13:53:53.218Z,77.4
2017-12-05T13:54:54.673Z,77.4
2017-12-05T13:55:58.049Z,77.7
2017-12-05T13:56:59.478Z,77.8
2017-12-05T13:58:00.942Z,78
2017-12-05T13:59:03.783Z,77.9
2017-12-05T14:00:05.234Z,77.7
2017-12-05T14:01:06.611Z,78.4
2017-12-05T14:02:07.799Z,77.8
2017-12-05T14:03:08.916Z,77.9
2017-12-05T14:04:10.721Z,77.8
2017-12-05T14:05:11.773Z,77.7
2017-12-05T14:06:13.694Z,77.4
2017-12-05T14:07:15.681Z,77.7
2017-12-05T14:08:17.095Z,77.9